Архив погоды в Екатерино-Никольском

Метеограмма Екатерино-Никольское
Среда, 19 Июня
Время местн. Темп Ветер Видим Явления Облачность нижн/средн/верх Атм. давл. Влжн Точка росы ВНГО R Сост. почвы Tg s
Напр Скр Прв ур.ст ур.м изм
22:00 +11.8° штиль 0 - 20 км небо без изменений {гроза, ливневые осадки} облачно 746 752 +0.9 94% +10.9° 1 км - - - -
19:00 +12.7° С 2 - 20 км небо без изменений {гроза, ливневые осадки} облачно 745 751 +1.1 88% +10.8° 1 км 8 - - -
16:00 +14.6° С,С-З 6 11 20 км слабый ливневый дождь облачно 744 750 +0.3 84% +12° 1 км - - - -
13:00 +19.9° Ю 3 - 50 км - облачно 743 750 -0.4 71% +14.4° 1 км - - - -
10:00 +15.3° В,Ю-В 1 - 20 км небо без изменений {ливневые осадки} облачно 744 750 -0.3 92% +14° 1 км - - - -
07:00 +14.3° Ю 2 - 20 км ливневый дождь облачно 744 751 -0.6 92% +13.1° 1 км 2 Влажная (без луж) - -
04:00 +14.4° Ю 3 - 20 км - облачно 745 751 -0.9 91% +13° 1 км - - - -
01:00 +13.5° Ю-В 1 - 20 км - облачно 746 752 -0.9 91% +12° - - - - -
Вторник, 18 Июня
Время местн. Темп Ветер Видим Явления Облачность нижн/средн/верх Атм. давл. Влжн Точка росы ВНГО R Сост. почвы Tg s
Напр Скр Прв ур.ст ур.м изм
22:00 +16.4° Ю 2 - 20 км - облачно 747 753 0 79% +12.7° - - - - -
19:00 +21.5° Ю 3 - 50 км - переменная облачность 747 753 -0.9 53% +11.4° 1 км 0 - - -
16:00 - +20.9° Ю,Ю-З 2 - - - - 748 754 -1.6 56% +11.9° - - - - -
13:00 +19.1° З,С-З 1 - 50 км - облачно с прояснениями 749 756 -1.1 55% +9.8° 1 км - - - -
10:00 +13.9° С-З 2 - 50 км - преимущественно облачно 751 757 -0.3 81% +10.7° 1 км - - - -
07:00 +11° С 1 - 20 км - облачно 751 757 0 96% +10.4° 1 км 1 Влажная (без луж) - -
04:00 +11.2° Ю 1 - 20 км - облачно 751 757 -0.3 97% +10.7° 1 км - - - -
01:00 +11.3° С 1 - 20 км - облачно 751 758 +0.1 95% +10.6° 1 км - - - -
Понедельник, 17 Июня
Время местн. Темп Ветер Видим Явления Облачность нижн/средн/верх Атм. давл. Влжн Точка росы ВНГО R Сост. почвы Tg s
Напр Скр Прв ур.ст ур.м изм
22:00 +12.1° В 2 - 20 км ливневый дождь облачно 751 758 +0.4 94% +11.1° 1 км - - - -
19:00 +12.7° С 1 - 10 км слабый ливневый дождь облачно 751 757 +0.1 94% +11.8° 1 км 4 - - -
16:00 +16° З,С-З 2 - 10 км слабый ливневый дождь облачно 751 757 -0.3 67% +9.9° 1 км - - - -
13:00 +17.3° З,С-З 2 - 20 км - облачно 751 757 +0.2 62% +10° 1 км - - - -
10:00 +14.6° С 5 - 20 км - облачно 751 757 +0.3 66% +8.4° 1 км - - - -
07:00 +10.3° С-З 3 - 20 км - облачно 751 757 +0.1 84% +7.7° 1 км 0 Влажная (без луж) - -
04:00 +9.6° С-З 2 - 20 км - облачно 751 757 -0.6 86% +7.4° 1 км - - - -
01:00 +12° С-З 3 - 20 км - переменная облачность 751 758 +0.2 81% +8.8° - - - - -
Воскресенье, 16 Июня
Время местн. Темп Ветер Видим Явления Облачность нижн/средн/верх Атм. давл. Влжн Точка росы ВНГО R Сост. почвы Tg s
Напр Скр Прв ур.ст ур.м изм
22:00 +13.5° З,Ю-З 1 - 20 км - переменная облачность 751 757 0 68% +7.8° 1 км - - - -
19:00 +21.1° Ю 2 - 50 км - переменная облачность 751 757 -1 35% +5.2° 1 км 0 - - -